Time;durP1;ratioP1;P1;durP2;ratioP2;P2;SDS_P1;SDS_P2;PMS_P1;PMS_P2;Temp;Humidity;BMP_temperature;BMP_pressure;BME280_temperature;BME280_humidity;BME280_pressure;Samples;Min_cycle;Max_cycle;Signal;HPM_P1;HPM_P2
2021/12/30 00:00:21;;;;;;;;;;;2.10;99.90;;;;;;5061512;28;20128;-78
2021/12/30 00:02:47;;;;;;;41.80;19.33;;;2.10;99.90;;;;;;5064041;28;19919;-79
2021/12/30 00:05:14;;;;;;;;;;;2.10;99.90;;;;;;5064385;28;20028;-78
2021/12/30 00:07:40;;;;;;;49.63;21.73;;;2.10;99.90;;;;;;5062216;28;20341;-78
2021/12/30 00:10:06;;;;;;;42.67;19.88;;;2.10;99.90;;;;;;5063003;28;20021;-78
2021/12/30 00:12:32;;;;;;;54.03;22.42;;;2.00;99.90;;;;;;5061792;28;20071;-78
2021/12/30 00:14:58;;;;;;;;;;;2.10;99.90;;;;;;5063693;28;20036;-77
2021/12/30 00:17:23;;;;;;;53.05;22.08;;;2.00;99.90;;;;;;5068335;28;20333;-79
2021/12/30 00:19:49;;;;;;;;;;;2.10;99.90;;;;;;5065268;28;20032;-77
2021/12/30 00:22:14;;;;;;;73.75;25.13;;;2.00;99.90;;;;;;5058706;28;19905;-78
2021/12/30 00:24:40;;;;;;;;;;;2.00;99.90;;;;;;5060959;28;20021;-79
2021/12/30 00:27:06;;;;;;;121.28;31.85;;;2.00;99.90;;;;;;5060251;28;19920;-79
2021/12/30 00:29:31;;;;;;;;;;;2.00;99.90;;;;;;5059830;28;20029;-78
2021/12/30 00:31:57;;;;;;;133.70;36.58;;;2.00;99.90;;;;;;5058473;28;19905;-77
2021/12/30 00:34:22;;;;;;;138.45;36.20;;;2.10;99.90;;;;;;5058447;28;20075;-77
2021/12/30 00:36:48;;;;;;;142.15;38.17;;;2.00;99.90;;;;;;5058529;28;20119;-78
2021/12/30 00:39:14;;;;;;;;;;;2.00;99.90;;;;;;5064172;28;20037;-79
2021/12/30 00:41:39;;;;;;;134.38;37.53;;;2.00;99.90;;;;;;5069027;28;20357;-79
2021/12/30 00:44:05;;;;;;;;;;;2.00;99.90;;;;;;5056734;28;20402;-79
2021/12/30 00:46:31;;;;;;;149.23;40.28;;;2.00;99.90;;;;;;5055625;28;20404;-78
2021/12/30 00:48:56;;;;;;;;;;;2.00;99.90;;;;;;5055658;28;20029;-79
2021/12/30 00:51:22;;;;;;;79.40;28.52;;;2.00;99.90;;;;;;5055502;28;19908;-77
2021/12/30 00:53:47;;;;;;;;;;;2.00;99.90;;;;;;5056744;28;20029;-78
2021/12/30 00:56:13;;;;;;;46.20;21.75;;;1.90;99.90;;;;;;5056487;28;19905;-78
2021/12/30 00:58:39;;;;;;;30.45;14.80;;;1.90;99.90;;;;;;5056980;28;20052;-79
2021/12/30 01:01:05;;;;;;;;;;;1.90;99.90;;;;;;5057521;28;20033;-79
2021/12/30 01:03:32;;;;;;;34.47;16.63;;;2.00;99.90;;;;;;5056809;28;19951;-79
2021/12/30 01:05:58;;;;;;;38.95;18.15;;;2.00;99.90;;;;;;5057174;28;20032;-78
2021/12/30 01:08:24;;;;;;;;;;;1.90;99.90;;;;;;5060608;28;20029;-79
2021/12/30 01:10:50;;;;;;;31.85;17.35;;;1.90;99.90;;;;;;5061253;28;19905;-79
2021/12/30 01:13:23;;;;;;;36.72;17.15;;;2.00;99.90;;;;;;5057206;28;20024;-78
2021/12/30 01:15:58;;;;;;;40.40;18.42;;;1.90;99.90;;;;;;5057476;28;20029;-79
2021/12/30 01:18:41;;;;;;;39.25;17.73;;;2.00;99.90;;;;;;5055843;28;20112;-78
2021/12/30 01:21:10;;;;;;;29.42;15.05;;;2.00;99.90;;;;;;5056837;28;20539;-78
2021/12/30 01:23:36;;;;;;;36.38;17.23;;;2.00;99.90;;;;;;5059914;28;20250;-78
2021/12/30 01:26:02;;;;;;;;;;;2.00;99.90;;;;;;5056764;28;20045;-79
2021/12/30 01:28:28;;;;;;;28.98;14.23;;;2.00;99.90;;;;;;5055582;28;19959;-78
2021/12/30 01:30:54;;;;;;;;;;;2.00;99.90;;;;;;5056664;28;20079;-78
2021/12/30 01:33:20;;;;;;;36.35;16.65;;;2.00;99.90;;;;;;5058308;28;19904;-78
2021/12/30 01:35:45;;;;;;;;;;;1.90;99.90;;;;;;5058040;28;20037;-79
2021/12/30 01:38:14;;;;;;;39.05;17.40;;;2.10;99.90;;;;;;5058005;28;19911;-79
2021/12/30 01:40:41;;;;;;;33.28;15.55;;;2.00;99.90;;;;;;5058396;28;20116;-77
2021/12/30 01:43:07;;;;;;;31.77;15.30;;;2.00;99.90;;;;;;5059095;28;20048;-78
2021/12/30 01:45:34;;;;;;;36.95;15.18;;;1.90;99.90;;;;;;5056627;28;20029;-78
2021/12/30 01:48:00;;;;;;;38.10;16.90;;;1.90;99.90;;;;;;5056685;28;20045;-78
2021/12/30 01:50:25;;;;;;;;;;;2.00;99.90;;;;;;5056882;28;20021;-79
2021/12/30 01:52:52;;;;;;;32.45;14.68;;;1.90;99.90;;;;;;5056573;28;20016;-78
2021/12/30 01:55:19;;;;;;;28.70;13.27;;;2.00;99.90;;;;;;5057010;28;20117;-79
2021/12/30 01:57:47;;;;;;;27.85;13.95;;;2.00;99.90;;;;;;5057495;28;20516;-79
2021/12/30 02:00:16;;;;;;;26.65;13.93;;;2.00;99.90;;;;;;5057664;28;20417;-78
2021/12/30 02:02:42;;;;;;;22.67;12.48;;;1.90;99.90;;;;;;5057682;28;20029;-78
2021/12/30 02:05:07;;;;;;;;;;;1.90;99.90;;;;;;5059148;28;20033;-78
2021/12/30 02:07:33;;;;;;;24.35;10.82;;;1.90;99.90;;;;;;5064003;28;19923;-79
2021/12/30 02:10:01;;;;;;;;;;;1.80;99.90;;;;;;5068765;28;20032;-79
2021/12/30 02:12:30;;;;;;;24.38;12.23;;;1.90;99.90;;;;;;5056061;28;19939;-78
2021/12/30 02:14:56;;;;;;;22.83;11.77;;;1.80;99.90;;;;;;5056283;28;20112;-78
2021/12/30 02:17:22;;;;;;;;;;;1.80;99.90;;;;;;5056226;28;20477;-80
2021/12/30 02:19:47;;;;;;;26.23;13.38;;;1.80;99.90;;;;;;5057391;28;20012;-78
2021/12/30 02:22:13;;;;;;;;;;;1.80;99.90;;;;;;5057173;28;20053;-79
2021/12/30 02:24:47;;;;;;;32.40;14.30;;;1.80;99.90;;;;;;5056230;28;19983;-79
2021/12/30 02:27:13;;;;;;;26.55;13.20;;;1.70;99.90;;;;;;5056739;28;20045;-80
2021/12/30 02:29:38;;;;;;;;;;;1.80;99.90;;;;;;5056955;28;20032;-78
2021/12/30 02:32:04;;;;;;;36.45;14.82;;;1.70;99.90;;;;;;5059033;28;20004;-79
2021/12/30 02:34:30;;;;;;;32.72;15.63;;;1.70;99.90;;;;;;5059364;28;20508;-79
2021/12/30 02:36:56;;;;;;;;;;;1.70;99.90;;;;;;5058471;28;20037;-80
2021/12/30 02:39:23;;;;;;;37.53;16.25;;;1.70;99.90;;;;;;5059952;28;19912;-79
2021/12/30 02:41:50;;;;;;;42.33;18.90;;;1.80;99.90;;;;;;5060668;28;20028;-78
2021/12/30 02:44:16;;;;;;;41.42;19.15;;;1.70;99.90;;;;;;5059751;28;20032;-78
2021/12/30 02:46:42;;;;;;;46.92;21.55;;;1.70;99.90;;;;;;5055160;28;20037;-78
2021/12/30 02:49:08;;;;;;;;;;;1.70;99.90;;;;;;5055558;28;20139;-78
2021/12/30 02:51:35;;;;;;;50.90;19.30;;;1.70;99.90;;;;;;5056169;28;19968;-78
2021/12/30 02:54:02;;;;;;;39.10;15.95;;;1.60;99.90;;;;;;5058912;28;20025;-78
2021/12/30 02:56:29;;;;;;;33.63;15.20;;;1.70;99.90;;;;;;5067998;28;20017;-80
2021/12/30 02:58:55;;;;;;;28.27;13.75;;;1.70;99.90;;;;;;5065339;28;20516;-78
2021/12/30 03:01:27;;;;;;;;;;;1.70;99.90;;;;;;5055205;28;20017;-79
2021/12/30 03:03:53;;;;;;;28.20;13.50;;;1.70;99.90;;;;;;5053260;28;19959;-78
2021/12/30 03:06:19;;;;;;;34.35;14.20;;;1.70;99.90;;;;;;5051589;28;20050;-78
2021/12/30 03:08:45;;;;;;;;;;;1.70;99.90;;;;;;5053364;28;20562;-79
2021/12/30 03:11:11;;;;;;;38.97;16.70;;;1.70;99.90;;;;;;5055195;28;19935;-79
2021/12/30 03:13:40;;;;;;;;;;;1.70;99.90;;;;;;5059517;28;20255;-77
2021/12/30 03:16:11;;;;;;;36.83;15.48;;;1.60;99.90;;;;;;5059489;28;19940;-79
2021/12/30 03:18:37;;;;;;;42.63;17.70;;;1.60;99.90;;;;;;5061169;28;20028;-78
2021/12/30 03:21:04;;;;;;;;;;;1.60;99.90;;;;;;5058602;28;20051;-78
2021/12/30 03:23:30;;;;;;;33.88;15.32;;;1.70;99.90;;;;;;5055089;28;19968;-78
2021/12/30 03:25:55;;;;;;;;;;;1.60;99.90;;;;;;5055599;28;20130;-78
2021/12/30 03:28:21;;;;;;;39.92;17.17;;;1.70;99.90;;;;;;5055446;28;20361;-77
2021/12/30 03:30:47;;;;;;;;;;;1.70;99.90;;;;;;5056948;28;20595;-78
2021/12/30 03:33:13;;;;;;;42.28;16.35;;;1.60;99.90;;;;;;5056000;28;20033;-78
2021/12/30 03:35:38;;;;;;;;;;;1.60;99.90;;;;;;5060877;28;20044;-79
2021/12/30 03:38:05;;;;;;;35.67;15.80;;;1.60;99.90;;;;;;5069990;28;19916;-77
2021/12/30 03:40:31;;;;;;;35.53;16.55;;;1.60;99.90;;;;;;5057435;28;20036;-79
2021/12/30 03:42:56;;;;;;;;;;;1.60;99.90;;;;;;5056028;28;20561;-79
2021/12/30 03:45:24;;;;;;;40.70;16.67;;;1.60;99.90;;;;;;5055110;28;19908;-80
2021/12/30 03:47:51;;;;;;;38.10;17.98;;;1.60;99.90;;;;;;5056426;28;20036;-79
2021/12/30 03:50:21;;;;;;;46.05;17.60;;;1.60;99.90;;;;;;5055209;28;20025;-78
2021/12/30 03:52:50;;;;;;;40.28;17.20;;;1.60;99.90;;;;;;5054639;28;20405;-79
2021/12/30 03:55:18;;;;;;;48.92;17.77;;;1.60;99.90;;;;;;5055340;28;20124;-79
2021/12/30 03:57:43;;;;;;;44.72;17.02;;;1.60;99.90;;;;;;5061191;28;20489;-78
2021/12/30 04:00:09;;;;;;;;;;;1.60;99.90;;;;;;5058167;28;20055;-78
2021/12/30 04:02:35;;;;;;;68.25;13.48;;;1.60;99.90;;;;;;5058689;28;19927;-79
2021/12/30 04:05:00;;;;;;;;;;;1.60;99.90;;;;;;5058971;28;20063;-79
2021/12/30 04:07:26;;;;;;;44.22;16.35;;;1.60;99.90;;;;;;5058162;28;19916;-78
2021/12/30 04:09:51;;;;;;;;;;;1.50;99.90;;;;;;5059943;28;20029;-79
2021/12/30 04:12:21;;;;;;;63.70;15.80;;;1.50;99.90;;;;;;5056665;28;19908;-79
2021/12/30 04:14:46;;;;;;;36.17;12.82;;;1.50;99.90;;;;;;5057184;28;20088;-79
2021/12/30 04:17:12;;;;;;;;;;;1.50;99.90;;;;;;5057830;28;20117;-80
2021/12/30 04:19:38;;;;;;;41.65;15.88;;;1.50;99.90;;;;;;5057772;28;19955;-80
2021/12/30 04:22:03;;;;;;;;;;;1.50;99.90;;;;;;5057838;28;20504;-79
2021/12/30 04:24:29;;;;;;;39.55;15.60;;;1.50;99.90;;;;;;5057775;28;19908;-79
2021/12/30 04:26:54;;;;;;;;;;;1.50;99.90;;;;;;5059313;28;20037;-79
2021/12/30 04:29:20;;;;;;;46.30;15.30;;;1.50;99.90;;;;;;5056928;28;19927;-79
2021/12/30 04:31:46;;;;;;;43.55;15.63;;;1.50;99.90;;;;;;5059658;28;20102;-78
2021/12/30 04:34:12;;;;;;;;;;;1.50;99.90;;;;;;5058697;28;20408;-79
2021/12/30 04:36:38;;;;;;;83.53;16.67;;;1.50;99.90;;;;;;5064228;28;19912;-80
2021/12/30 04:39:04;;;;;;;;;;;1.50;99.90;;;;;;5073306;28;20028;-80
2021/12/30 04:46:40;;;;;;;51.22;16.40;;;1.40;99.90;;;;;;5651258;22;20053;-79
2021/12/30 04:49:07;;;;;;;;;;;1.40;99.90;;;;;;5022770;28;20060;-76
2021/12/30 04:51:34;;;;;;;42.57;14.90;;;1.50;99.90;;;;;;5028773;28;19905;-77
2021/12/30 04:54:00;;;;;;;47.20;16.90;;;1.40;99.90;;;;;;5033540;28;20026;-78
2021/12/30 04:56:27;;;;;;;;;;;1.40;99.90;;;;;;5033164;28;20030;-78
2021/12/30 04:58:54;;;;;;;37.20;14.68;;;1.50;99.90;;;;;;5033737;28;19912;-78
2021/12/30 05:01:20;;;;;;;48.30;16.73;;;1.50;99.90;;;;;;5034308;28;20064;-77
2021/12/30 05:03:47;;;;;;;50.33;16.88;;;1.50;99.90;;;;;;5025634;28;20041;-78
2021/12/30 05:06:15;;;;;;;52.70;20.17;;;1.50;99.90;;;;;;5028958;28;20030;-78
2021/12/30 05:08:48;;;;;;;51.25;16.75;;;1.50;99.90;;;;;;5026887;28;20030;-78
2021/12/30 05:11:19;;;;;;;69.47;17.77;;;1.50;99.90;;;;;;5028836;28;20040;-77
2021/12/30 05:13:53;;;;;;;52.92;17.75;;;1.50;99.90;;;;;;5037378;28;20033;-79
2021/12/30 05:16:29;;;;;;;53.33;16.77;;;1.50;99.90;;;;;;5034533;28;20042;-77
2021/12/30 05:18:57;;;;;;;154.55;19.52;;;1.50;99.90;;;;;;5023355;28;20030;-77
2021/12/30 05:21:24;;;;;;;135.38;21.85;;;1.50;99.90;;;;;;5024749;28;20037;-76
2021/12/30 05:23:50;;;;;;;113.90;17.58;;;1.50;99.90;;;;;;5018151;28;20437;-76
2021/12/30 05:26:16;;;;;;;;;;;1.50;99.90;;;;;;5019293;28;20550;-77
2021/12/30 05:28:45;;;;;;;147.10;18.40;;;1.50;99.90;;;;;;5022547;28;20008;-77
2021/12/30 05:31:13;;;;;;;60.00;17.75;;;1.50;99.90;;;;;;5026539;28;20040;-78
2021/12/30 05:33:47;;;;;;;59.17;17.65;;;1.40;99.90;;;;;;5031653;28;20025;-79
2021/12/30 05:36:14;;;;;;;85.97;19.55;;;1.40;99.90;;;;;;5030859;28;20030;-77
2021/12/30 05:38:41;;;;;;;;;;;1.30;99.90;;;;;;5031398;28;20018;-79
2021/12/30 05:41:30;;;;;;;94.70;16.98;;;1.30;99.90;;;;;;5032246;28;19906;-77
2021/12/30 05:44:01;;;;;;;67.45;16.17;;;1.30;99.90;;;;;;5032472;28;20033;-78
2021/12/30 05:46:38;;;;;;;115.10;17.45;;;1.30;99.90;;;;;;5031298;28;20106;-79
2021/12/30 05:49:18;;;;;;;56.05;15.95;;;1.30;99.90;;;;;;5030073;28;20043;-79
2021/12/30 05:51:44;;;;;;;173.73;21.00;;;1.30;99.90;;;;;;5021406;28;20065;-78
2021/12/30 05:54:10;;;;;;;;;;;1.30;99.90;;;;;;5006353;28;20034;-79
2021/12/30 05:56:36;;;;;;;124.67;21.10;;;1.20;99.90;;;;;;5024561;28;19921;-77
2021/12/30 05:59:06;;;;;;;195.77;21.25;;;1.30;99.90;;;;;;5026690;28;20026;-78
2021/12/30 06:01:36;;;;;;;124.38;23.02;;;1.30;99.90;;;;;;5026093;28;20102;-78
2021/12/30 06:04:02;;;;;;;305.52;40.13;;;1.30;99.90;;;;;;5025879;28;20034;-78
2021/12/30 06:06:32;;;;;;;233.57;32.95;;;1.30;99.90;;;;;;5027053;28;20034;-78
2021/12/30 06:09:00;;;;;;;492.63;104.60;;;1.30;99.90;;;;;;5026395;28;20029;-79
2021/12/30 06:12:02;;;;;;;834.90;401.40;;;1.30;99.90;;;;;;5028988;28;20034;-79
2021/12/30 06:15:40;;;;;;;264.20;28.95;;;1.30;99.90;;;;;;5036647;28;20030;-79
2021/12/30 06:18:08;;;;;;;153.07;37.65;;;1.30;99.90;;;;;;5039700;28;20033;-79
2021/12/30 06:20:34;;;;;;;187.68;26.30;;;1.40;99.90;;;;;;5035355;28;20030;-79
2021/12/30 06:23:03;;;;;;;;;;;1.30;99.90;;;;;;5035972;28;20010;-78
2021/12/30 06:25:30;;;;;;;147.05;28.10;;;1.30;99.90;;;;;;5033956;28;19906;-78
2021/12/30 06:27:57;;;;;;;84.47;23.80;;;1.30;99.90;;;;;;5031145;28;20030;-80
2021/12/30 06:30:23;;;;;;;66.97;24.85;;;1.30;99.90;;;;;;5030488;28;20041;-78
2021/12/30 06:32:50;;;;;;;;;;;1.30;99.90;;;;;;5035318;28;20022;-79
2021/12/30 06:35:22;;;;;;;;;;;1.30;99.90;;;;;;5019280;28;19920;-78
2021/12/30 06:38:30;;;;;;;58.50;20.15;;;1.30;99.90;;;;;;5038200;28;19897;-78
2021/12/30 06:40:59;;;;;;;;;;;1.30;99.90;;;;;;5034801;28;20048;-78
2021/12/30 06:43:39;;;;;;;106.85;24.30;;;1.40;99.90;;;;;;5038006;28;19909;-79
2021/12/30 06:46:06;;;;;;;70.72;21.17;;;1.30;99.90;;;;;;5026154;28;20049;-77
2021/12/30 06:48:31;;;;;;;;;;;1.40;99.90;;;;;;5024843;28;20030;-77
2021/12/30 06:50:59;;;;;;;81.03;21.45;;;1.40;99.90;;;;;;5027804;28;19912;-77
2021/12/30 06:53:26;;;;;;;89.80;25.38;;;1.40;99.90;;;;;;5029660;28;20048;-77
2021/12/30 06:56:21;;;;;;;90.13;26.83;;;1.40;99.90;;;;;;5028084;28;20030;-77
2021/12/30 06:58:48;;;;;;;182.07;27.15;;;1.40;99.90;;;;;;5026155;28;20122;-77
2021/12/30 07:01:16;;;;;;;70.10;22.02;;;1.40;99.90;;;;;;5027819;28;20079;-78
2021/12/30 07:03:45;;;;;;;82.47;22.55;;;1.50;99.90;;;;;;5028552;28;20038;-78
2021/12/30 07:06:15;;;;;;;65.07;20.13;;;1.50;99.90;;;;;;5030575;28;20034;-77
2021/12/30 07:09:13;;;;;;;64.88;20.38;;;1.50;99.90;;;;;;5031733;28;20113;-78
2021/12/30 07:12:16;;;;;;;187.10;27.40;;;1.50;99.90;;;;;;5016498;28;20053;-79
2021/12/30 07:15:14;;;;;;;86.88;23.90;;;1.50;99.90;;;;;;5031100;28;20034;-78
2021/12/30 07:17:55;;;;;;;98.95;24.33;;;1.50;99.90;;;;;;5032764;28;20017;-77
2021/12/30 07:20:22;;;;;;;145.85;26.70;;;1.50;99.90;;;;;;5030387;28;20030;-77
2021/12/30 07:23:18;;;;;;;171.65;26.17;;;1.70;99.90;;;;;;5051435;28;20037;-78
2021/12/30 07:26:07;;;;;;;68.85;22.40;;;1.50;99.90;;;;;;5034485;28;20037;-78
2021/12/30 07:28:34;;;;;;;90.78;22.70;;;1.60;99.90;;;;;;5046780;28;20096;-77
2021/12/30 07:31:11;;;;;;;95.93;21.50;;;1.60;99.90;;;;;;5032533;28;20045;-78
2021/12/30 07:33:38;;;;;;;60.50;19.52;;;1.60;99.90;;;;;;5028479;28;20025;-77
2021/12/30 07:36:04;;;;;;;80.97;22.85;;;1.60;99.90;;;;;;5008128;28;20068;-77
2021/12/30 07:38:30;;;;;;;;;;;1.60;99.90;;;;;;5040886;28;20053;-77
2021/12/30 07:40:56;;;;;;;100.28;19.60;;;1.50;99.90;;;;;;5022615;28;19924;-76
2021/12/30 07:43:21;;;;;;;;;;;1.60;99.90;;;;;;5024670;28;20037;-78
2021/12/30 07:45:50;;;;;;;52.53;15.77;;;1.60;99.90;;;;;;5044740;28;19905;-77
2021/12/30 07:48:16;;;;;;;;;;;1.60;99.90;;;;;;5027600;28;20068;-77
2021/12/30 07:50:41;;;;;;;64.30;16.98;;;1.60;99.90;;;;;;5043721;28;19956;-77
2021/12/30 07:53:17;;;;;;;;;;;1.60;99.90;;;;;;5040789;28;20034;-78
2021/12/30 07:55:46;;;;;;;52.65;19.17;;;1.60;99.90;;;;;;5027851;28;19912;-78
2021/12/30 07:58:12;;;;;;;74.10;24.40;;;1.60;99.90;;;;;;5023637;28;20038;-78
2021/12/30 08:00:39;;;;;;;;;;;1.60;99.90;;;;;;5029682;28;20066;-78
2021/12/30 08:03:12;;;;;;;85.57;26.55;;;1.70;99.90;;;;;;5028682;28;19909;-78
2021/12/30 08:05:37;;;;;;;68.40;26.52;;;1.60;99.90;;;;;;5025476;28;20034;-78
2021/12/30 08:08:03;;;;;;;;;;;1.70;99.90;;;;;;5024397;28;20034;-78
2021/12/30 08:10:30;;;;;;;60.78;22.30;;;1.70;99.90;;;;;;5027872;28;19984;-80
2021/12/30 08:12:57;;;;;;;55.10;17.38;;;1.70;99.90;;;;;;5029688;28;20125;-79
2021/12/30 08:15:23;;;;;;;74.53;19.25;;;1.60;99.90;;;;;;5025328;28;20389;-78
2021/12/30 08:17:50;;;;;;;76.07;22.95;;;1.70;99.90;;;;;;5028545;28;20033;-78
2021/12/30 08:20:17;;;;;;;59.05;20.52;;;1.70;99.90;;;;;;4995752;28;20506;-80
2021/12/30 08:22:52;;;;;;;88.25;23.55;;;1.70;99.90;;;;;;5030738;28;20018;-79
2021/12/30 08:25:19;;;;;;;77.57;24.73;;;1.70;99.90;;;;;;5024612;28;20115;-79
2021/12/30 08:27:45;;;;;;;67.00;24.98;;;1.80;99.90;;;;;;5023325;28;20097;-78
2021/12/30 08:30:13;;;;;;;61.95;23.00;;;1.80;99.90;;;;;;5022752;28;20022;-78
2021/12/30 08:32:39;;;;;;;63.55;21.00;;;1.80;99.90;;;;;;5022387;28;20030;-78
2021/12/30 08:35:07;;;;;;;;;;;1.80;99.90;;;;;;5019874;28;20026;-78
2021/12/30 08:37:34;;;;;;;72.90;23.00;;;1.90;99.90;;;;;;5020711;28;19909;-78
2021/12/30 08:40:01;;;;;;;69.90;23.00;;;2.00;99.90;;;;;;5020401;28;20096;-78
2021/12/30 08:42:28;;;;;;;70.93;20.17;;;1.90;99.90;;;;;;5017877;28;20128;-76
2021/12/30 08:44:57;;;;;;;55.05;19.63;;;1.90;99.90;;;;;;5023210;28;20180;-78
2021/12/30 08:47:25;;;;;;;60.60;17.88;;;1.90;99.90;;;;;;5029397;28;20046;-78
2021/12/30 08:49:56;;;;;;;49.65;18.65;;;2.00;99.90;;;;;;5025725;28;20025;-78
2021/12/30 08:52:24;;;;;;;60.47;20.60;;;2.00;99.90;;;;;;5015369;28;20041;-77
2021/12/30 08:54:51;;;;;;;56.10;19.73;;;1.90;99.90;;;;;;5016263;28;20024;-77
2021/12/30 08:57:22;;;;;;;57.97;19.45;;;2.10;99.90;;;;;;5020772;28;20116;-78
2021/12/30 08:59:48;;;;;;;37.78;14.77;;;2.00;99.90;;;;;;5031824;28;20029;-78
2021/12/30 09:02:13;;;;;;;;;;;2.00;99.90;;;;;;5028868;28;20033;-79
2021/12/30 09:04:46;;;;;;;70.10;20.05;;;2.20;99.90;;;;;;5013918;28;19992;-79
2021/12/30 09:07:14;;;;;;;52.30;17.73;;;2.20;99.90;;;;;;5014517;28;20041;-79
2021/12/30 09:09:44;;;;;;;55.75;23.02;;;2.20;99.90;;;;;;5015325;28;20030;-79
2021/12/30 09:12:10;;;;;;;60.30;21.08;;;2.20;99.90;;;;;;5032564;28;20030;-78
2021/12/30 09:14:37;;;;;;;;;;;2.20;99.90;;;;;;5033817;28;20033;-80
2021/12/30 09:17:07;;;;;;;55.88;18.65;;;2.20;99.90;;;;;;5032553;28;20293;-78
2021/12/30 09:19:47;;;;;;;;;;;2.30;99.90;;;;;;5028953;28;20037;-78
2021/12/30 09:22:12;;;;;;;42.55;15.95;;;2.30;99.90;;;;;;5021442;28;20413;-78
2021/12/30 09:24:38;;;;;;;;;;;2.40;99.90;;;;;;5024079;28;20064;-78
2021/12/30 09:27:05;;;;;;;47.03;16.02;;;2.40;99.90;;;;;;5030031;28;19917;-79
2021/12/30 09:29:32;;;;;;;47.42;17.73;;;2.40;99.90;;;;;;5025229;28;20042;-79
2021/12/30 09:31:58;;;;;;;;;;;2.40;99.90;;;;;;5024131;28;20054;-78
2021/12/30 09:34:25;;;;;;;47.03;19.15;;;2.50;99.90;;;;;;5012153;28;20318;-79
2021/12/30 09:36:52;;;;;;;55.65;20.85;;;2.50;99.90;;;;;;5015998;28;20038;-77
2021/12/30 09:39:18;;;;;;;49.80;16.75;;;2.40;99.90;;;;;;5015004;28;20034;-78
2021/12/30 09:41:50;;;;;;;51.25;17.05;;;2.40;99.90;;;;;;5007079;28;20039;-78
2021/12/30 09:44:18;;;;;;;34.45;15.60;;;2.40;99.90;;;;;;4997258;28;20053;-78
2021/12/30 09:46:45;;;;;;;41.50;17.42;;;2.50;99.90;;;;;;5011608;28;20053;-78
2021/12/30 09:49:18;;;;;;;45.30;16.83;;;2.50;99.90;;;;;;5012026;28;20030;-78
2021/12/30 09:51:45;;;;;;;48.03;19.42;;;2.50;99.90;;;;;;5010721;28;20038;-78
2021/12/30 09:54:12;;;;;;;52.72;22.92;;;2.60;99.90;;;;;;5012046;28;20087;-78
2021/12/30 09:56:38;;;;;;;42.70;20.40;;;2.60;99.90;;;;;;5007914;28;20042;-78
2021/12/30 09:59:03;;;;;;;;;;;2.70;99.90;;;;;;5013208;28;20037;-79
2021/12/30 10:01:30;;;;;;;40.15;16.95;;;2.70;99.90;;;;;;5010471;28;19983;-78
2021/12/30 10:03:56;;;;;;;;;;;2.80;99.90;;;;;;5014150;28;20034;-78
2021/12/30 10:06:22;;;;;;;43.70;17.08;;;2.80;99.90;;;;;;5012732;28;20020;-78
2021/12/30 10:09:06;;;;;;;;;;;2.80;99.90;;;;;;5010977;28;20145;-80
2021/12/30 10:11:52;;;;;;;27.30;12.30;;;2.90;99.90;;;;;;5028811;28;20440;-78
2021/12/30 10:14:37;;;;;;;34.28;14.95;;;2.90;99.90;;;;;;5011277;28;20101;-77
2021/12/30 10:17:23;;;;;;;30.60;14.40;;;3.00;99.90;;;;;;5007761;28;20042;-78
2021/12/30 10:19:51;;;;;;;35.30;14.88;;;3.00;99.90;;;;;;5012160;28;20065;-77
2021/12/30 10:22:42;;;;;;;50.33;18.85;;;3.00;99.90;;;;;;5011378;28;20030;-79
2021/12/30 10:26:05;;;;;;;51.10;26.30;;;3.10;99.90;;;;;;5029571;28;20026;-79
2021/12/30 10:28:40;;;;;;;40.03;18.10;;;3.00;99.90;;;;;;5029747;28;20034;-79
2021/12/30 10:31:27;;;;;;;43.08;22.85;;;3.00;99.90;;;;;;5014036;28;20048;-81
2021/12/30 10:34:16;;;;;;;34.70;17.65;;;3.00;99.90;;;;;;5032236;28;20037;-79
2021/12/30 10:37:32;;;;;;;35.97;16.15;;;3.10;99.90;;;;;;5030843;28;20025;-79
2021/12/30 10:40:05;;;;;;;32.65;16.83;;;3.20;99.90;;;;;;5030735;28;20125;-77
2021/12/30 10:42:33;;;;;;;31.55;15.77;;;3.20;99.90;;;;;;5027895;28;20038;-79
2021/12/30 10:45:06;;;;;;;32.38;16.38;;;3.30;99.90;;;;;;5029908;28;20042;-79
2021/12/30 10:47:49;;;;;;;36.55;16.77;;;3.40;99.90;;;;;;5018084;28;20065;-79
2021/12/30 10:50:15;;;;;;;35.40;16.02;;;3.40;99.90;;;;;;5034690;28;20121;-79
2021/12/30 10:52:45;;;;;;;;;;;3.40;99.90;;;;;;5030994;28;20025;-79
2021/12/30 10:55:14;;;;;;;58.83;26.00;;;3.30;99.90;;;;;;5035538;28;20013;-80
2021/12/30 10:57:41;;;;;;;58.75;28.98;;;3.30;99.90;;;;;;5016411;28;20033;-78
2021/12/30 11:00:09;;;;;;;58.05;28.50;;;3.20;99.90;;;;;;5032920;28;20032;-79
2021/12/30 11:02:35;;;;;;;65.88;29.42;;;3.20;99.90;;;;;;5013702;28;20034;-79
2021/12/30 11:05:10;;;;;;;61.42;21.77;;;3.20;99.90;;;;;;5013341;28;20013;-78
2021/12/30 11:07:48;;;;;;;116.43;24.05;;;3.10;99.90;;;;;;5014863;28;20103;-79
2021/12/30 11:10:30;;;;;;;51.15;20.40;;;3.00;99.90;;;;;;5029285;28;20030;-78
2021/12/30 11:13:12;;;;;;;76.38;22.40;;;3.00;99.90;;;;;;5014932;28;20049;-79
2021/12/30 11:16:09;;;;;;;54.80;19.83;;;2.90;99.90;;;;;;5030805;28;20064;-79
2021/12/30 11:18:46;;;;;;;48.42;19.08;;;2.80;99.90;;;;;;5031474;28;20037;-79
2021/12/30 11:21:35;;;;;;;48.88;19.52;;;2.80;99.90;;;;;;5032296;28;20490;-78
2021/12/30 11:24:03;;;;;;;50.38;19.52;;;2.70;99.90;;;;;;5032785;28;20030;-78
2021/12/30 11:26:32;;;;;;;42.70;20.20;;;2.70;99.90;;;;;;5016389;28;20034;-78
2021/12/30 11:29:16;;;;;;;73.50;24.48;;;2.70;99.90;;;;;;5033181;28;20022;-78
2021/12/30 11:31:48;;;;;;;90.30;22.23;;;2.60;99.90;;;;;;5031599;28;20026;-78
2021/12/30 11:34:14;;;;;;;85.72;23.00;;;2.60;99.90;;;;;;5030834;28;20026;-79
2021/12/30 11:36:39;;;;;;;;;;;2.60;99.90;;;;;;5033484;28;20072;-79
2021/12/30 11:39:18;;;;;;;56.72;20.88;;;2.60;99.90;;;;;;5030264;28;19906;-79
2021/12/30 11:42:13;;;;;;;63.25;20.70;;;2.60;99.90;;;;;;5015268;28;20045;-78
2021/12/30 11:48:00;;;;;;;48.58;19.70;;;2.60;99.90;;;;;;5032513;28;20056;-79
2021/12/30 11:50:53;;;;;;;73.75;22.08;;;2.60;99.90;;;;;;5032534;28;20047;-78
2021/12/30 11:54:20;;;;;;;92.18;24.63;;;2.60;99.90;;;;;;4986536;28;20105;-78
2021/12/30 11:57:08;;;;;;;67.47;19.58;;;2.60;99.90;;;;;;5019321;28;20037;-79
2021/12/30 12:00:20;;;;;;;66.70;19.80;;;2.60;99.90;;;;;;5029536;28;20069;-79
2021/12/30 12:03:40;;;;;;;99.22;21.15;;;2.70;99.90;;;;;;5032232;28;20501;-78
2021/12/30 12:06:45;;;;;;;54.47;19.40;;;2.70;99.90;;;;;;5031770;28;20018;-78
2021/12/30 12:09:34;;;;;;;61.05;19.77;;;2.70;99.90;;;;;;5032246;28;20041;-79
2021/12/30 12:12:40;;;;;;;120.13;25.10;;;2.70;99.90;;;;;;5032327;28;20018;-78
2021/12/30 12:15:34;;;;;;;126.35;25.95;;;2.70;99.90;;;;;;5033544;28;20025;-79
2021/12/30 12:18:43;;;;;;;58.95;19.70;;;2.60;99.90;;;;;;5018701;28;20112;-79
2021/12/30 12:21:27;;;;;;;40.53;17.15;;;2.60;99.90;;;;;;5031651;28;20041;-78
2021/12/30 12:24:47;;;;;;;102.38;28.10;;;2.60;99.90;;;;;;5036058;28;20022;-79
2021/12/30 12:28:07;;;;;;;93.53;21.85;;;2.50;99.90;;;;;;5026210;28;20048;-79
2021/12/30 12:31:10;;;;;;;93.60;28.08;;;2.50;99.90;;;;;;5019142;28;20026;-79
2021/12/30 12:33:40;;;;;;;82.30;21.45;;;2.40;99.90;;;;;;5015704;28;20034;-80
2021/12/30 12:36:33;;;;;;;59.58;19.42;;;2.40;99.90;;;;;;5032576;28;20034;-78
2021/12/30 12:39:03;;;;;;;88.00;21.50;;;2.40;99.90;;;;;;5032630;28;20033;-79
2021/12/30 12:41:31;;;;;;;58.90;18.92;;;2.40;99.90;;;;;;5030697;28;20037;-78
2021/12/30 12:44:19;;;;;;;46.20;19.35;;;2.50;99.90;;;;;;5015960;28;20106;-78
2021/12/30 12:46:56;;;;;;;78.93;21.95;;;2.50;99.90;;;;;;5031639;28;20078;-79
2021/12/30 12:49:41;;;;;;;75.20;21.42;;;2.50;99.90;;;;;;5033174;28;20081;-79
2021/12/30 12:52:09;;;;;;;106.82;24.95;;;2.50;99.90;;;;;;5031578;28;20034;-77
2021/12/30 12:54:38;;;;;;;55.42;21.05;;;2.50;99.90;;;;;;5031420;28;20052;-79
2021/12/30 12:57:08;;;;;;;70.07;22.52;;;2.50;99.90;;;;;;5017556;28;20060;-78
2021/12/30 12:59:36;;;;;;;98.93;25.85;;;2.40;99.90;;;;;;5030219;28;20076;-78
2021/12/30 13:02:05;;;;;;;105.00;24.52;;;2.60;99.90;;;;;;5016167;28;20594;-77
2021/12/30 13:04:32;;;;;;;111.38;25.83;;;2.60;99.90;;;;;;5035595;28;20014;-80
2021/12/30 13:07:24;;;;;;;60.72;23.20;;;2.50;99.90;;;;;;5036974;28;20030;-78
2021/12/30 13:10:00;;;;;;;53.28;20.05;;;2.50;99.90;;;;;;5017872;28;20042;-79
2021/12/30 13:12:55;;;;;;;52.35;20.90;;;2.60;99.90;;;;;;5041188;28;20048;-78
2021/12/30 13:19:36;;;;;;;56.80;18.08;;;2.60;99.90;;;;;;5034320;28;20584;-79
2021/12/30 13:23:09;;;;;;;54.78;18.85;;;2.60;99.90;;;;;;5036184;28;20129;-79
2021/12/30 13:26:29;;;;;;;48.78;18.25;;;2.60;99.90;;;;;;5037020;28;20017;-80
2021/12/30 13:29:19;;;;;;;66.22;19.13;;;2.60;99.90;;;;;;5036282;28;20054;-79
2021/12/30 13:32:08;;;;;;;51.05;18.75;;;2.60;99.90;;;;;;5036944;28;20057;-79
2021/12/30 13:34:58;;;;;;;56.83;19.25;;;2.60;99.90;;;;;;5018338;28;20018;-78
2021/12/30 13:37:28;;;;;;;54.25;19.92;;;2.60;99.90;;;;;;5034721;28;20014;-79